Time;durP1;ratioP1;P1;durP2;ratioP2;P2;SDS_P1;SDS_P2;PMS_P1;PMS_P2;Temp;Humidity;BMP_temperature;BMP_pressure;BME280_temperature;BME280_humidity;BME280_pressure;Samples;Min_cycle;Max_cycle;Signal;HPM_P1;HPM_P2
2024/01/17 00:00:22;;;;;;;16.88;6.30;;;-3.70;99.90;;;;;;5026921;28;20483;-63
2024/01/17 00:02:48;;;;;;;24.15;6.85;;;-3.70;99.90;;;;;;5018790;28;20116;-63
2024/01/17 00:05:14;;;;;;;15.32;5.88;;;-3.70;99.90;;;;;;5028635;28;20026;-63
2024/01/17 00:07:40;;;;;;;17.48;7.03;;;-3.70;99.90;;;;;;5029582;28;20093;-63
2024/01/17 00:10:06;;;;;;;21.55;7.00;;;-3.70;99.90;;;;;;5029777;28;20033;-63
2024/01/17 00:12:32;;;;;;;15.15;6.00;;;-3.80;99.90;;;;;;5030093;28;20025;-63
2024/01/17 00:14:58;;;;;;;16.52;7.22;;;-3.80;99.90;;;;;;5027436;28;20032;-63
2024/01/17 00:17:24;;;;;;;12.32;5.60;;;-3.80;99.90;;;;;;5029190;28;20049;-63
2024/01/17 00:19:50;;;;;;;15.95;5.65;;;-3.80;99.90;;;;;;5029294;28;20119;-63
2024/01/17 00:22:16;;;;;;;22.27;8.45;;;-3.80;99.90;;;;;;5029857;28;20021;-63
2024/01/17 00:24:42;;;;;;;19.35;8.02;;;-3.80;99.90;;;;;;5027703;28;20017;-63
2024/01/17 00:27:08;;;;;;;12.23;4.38;;;-3.80;99.90;;;;;;5028468;28;20017;-63
2024/01/17 00:29:34;;;;;;;17.40;6.85;;;-3.90;99.90;;;;;;5029705;28;20493;-63
2024/01/17 00:31:59;;;;;;;18.92;6.80;;;-3.80;99.90;;;;;;5029461;28;20029;-63
2024/01/17 00:34:25;;;;;;;22.20;7.22;;;-3.90;99.90;;;;;;5027884;28;20034;-63
2024/01/17 00:36:50;;;;;;;20.45;7.90;;;-3.90;99.90;;;;;;5028889;28;20075;-63
2024/01/17 00:39:18;;;;;;;22.88;8.05;;;-3.90;99.90;;;;;;5029343;28;20033;-64
2024/01/17 00:41:45;;;;;;;16.50;6.70;;;-3.90;99.90;;;;;;5029130;28;20017;-64
2024/01/17 00:44:14;;;;;;;22.02;7.00;;;-3.90;99.90;;;;;;5025454;28;20022;-63
2024/01/17 00:46:40;;;;;;;18.48;8.00;;;-4.00;99.90;;;;;;5027997;28;20042;-63
2024/01/17 00:49:06;;;;;;;17.45;7.63;;;-4.00;99.90;;;;;;5029108;28;20063;-63
2024/01/17 00:51:32;;;;;;;17.48;6.18;;;-4.00;99.90;;;;;;5032800;28;20022;-63
2024/01/17 00:53:57;;;;;;;14.38;6.28;;;-4.10;99.90;;;;;;5028635;28;20029;-63
2024/01/17 00:56:23;;;;;;;12.35;5.63;;;-4.10;99.90;;;;;;5029648;28;20029;-63
2024/01/17 00:58:49;;;;;;;20.48;8.27;;;-4.10;99.90;;;;;;5027601;28;20504;-63
2024/01/17 01:01:14;;;;;;;24.20;8.43;;;-4.10;99.90;;;;;;5029265;28;20496;-63
2024/01/17 01:03:40;;;;;;;19.25;7.82;;;-4.10;99.90;;;;;;5025282;28;20552;-63
2024/01/17 01:06:05;;;;;;;26.90;8.10;;;-4.10;99.90;;;;;;5028883;28;20037;-63
2024/01/17 01:08:31;;;;;;;19.55;7.43;;;-4.20;99.90;;;;;;5027608;28;20083;-63
2024/01/17 01:10:56;;;;;;;19.27;7.93;;;-4.20;99.90;;;;;;5028772;28;20029;-62
2024/01/17 01:13:23;;;;;;;16.83;7.88;;;-4.20;99.90;;;;;;5028872;28;20527;-63
2024/01/17 01:15:49;;;;;;;16.25;7.25;;;-4.40;99.90;;;;;;5023956;28;20642;-63
2024/01/17 01:18:15;;;;;;;17.10;6.40;;;-4.30;99.90;;;;;;5028543;28;20117;-63
2024/01/17 01:20:41;;;;;;;25.75;7.35;;;-4.30;99.90;;;;;;5028157;28;20041;-63
2024/01/17 01:23:06;;;;;;;19.45;6.32;;;-4.30;99.90;;;;;;5028623;28;20052;-63
2024/01/17 01:25:32;;;;;;;16.05;6.07;;;-4.30;99.90;;;;;;5027384;28;20025;-63
2024/01/17 01:27:57;;;;;;;19.15;5.90;;;-4.20;99.90;;;;;;5028631;28;20536;-63
2024/01/17 01:30:23;;;;;;;16.83;6.40;;;-4.20;99.90;;;;;;5024704;28;20040;-63
2024/01/17 01:32:49;;;;;;;16.80;6.25;;;-4.20;99.90;;;;;;5026651;28;20053;-63
2024/01/17 01:35:14;;;;;;;18.05;7.03;;;-4.20;99.90;;;;;;5028380;28;20030;-63
2024/01/17 01:37:40;;;;;;;13.02;4.80;;;-4.20;99.90;;;;;;5026752;28;20032;-63
2024/01/17 01:40:09;;;;;;;15.88;6.53;;;-4.20;99.90;;;;;;5029020;28;20045;-63
2024/01/17 01:42:35;;;;;;;15.17;5.87;;;-4.20;99.90;;;;;;5027590;28;20060;-63
2024/01/17 01:45:01;;;;;;;18.13;5.43;;;-4.30;99.90;;;;;;5023983;28;20481;-63
2024/01/17 01:47:27;;;;;;;18.92;6.28;;;-4.30;99.90;;;;;;5028330;28;20112;-63
2024/01/17 01:49:53;;;;;;;16.75;6.25;;;-4.30;99.90;;;;;;5028683;28;20021;-63
2024/01/17 01:52:20;;;;;;;17.23;5.93;;;-4.30;99.90;;;;;;5028631;28;20041;-63
2024/01/17 01:54:47;;;;;;;16.38;6.18;;;-4.30;99.90;;;;;;5027821;28;20057;-63
2024/01/17 01:57:14;;;;;;;14.95;6.38;;;-4.30;99.90;;;;;;5029450;28;20112;-63
2024/01/17 01:59:40;;;;;;;17.60;7.47;;;-4.30;99.90;;;;;;5028026;28;20524;-63
2024/01/17 02:02:07;;;;;;;13.63;4.78;;;-4.30;99.90;;;;;;5028545;28;20024;-63
2024/01/17 02:04:34;;;;;;;14.45;6.35;;;-4.30;99.90;;;;;;5025313;28;20090;-63
2024/01/17 02:07:01;;;;;;;18.13;6.28;;;-4.30;99.90;;;;;;5027757;28;20040;-63
2024/01/17 02:09:28;;;;;;;11.65;4.03;;;-4.30;99.90;;;;;;5028751;28;20544;-63
2024/01/17 02:11:57;;;;;;;14.95;5.60;;;-4.30;99.90;;;;;;5028277;28;20030;-63
2024/01/17 02:14:24;;;;;;;19.35;7.00;;;-4.20;99.90;;;;;;5020970;28;20014;-63
2024/01/17 02:16:50;;;;;;;15.23;6.32;;;-4.20;99.90;;;;;;5023957;28;20459;-63
2024/01/17 02:19:17;;;;;;;17.67;7.05;;;-4.20;99.90;;;;;;5028430;28;20101;-63
2024/01/17 02:21:43;;;;;;;17.63;5.25;;;-4.20;99.90;;;;;;5027531;28;20356;-63
2024/01/17 02:24:23;;;;;;;15.50;5.85;;;-4.20;99.90;;;;;;5028559;28;20025;-63
2024/01/17 02:26:49;;;;;;;19.38;7.07;;;-4.20;99.90;;;;;;5024013;28;20025;-63
2024/01/17 02:29:15;;;;;;;19.48;7.07;;;-4.10;99.90;;;;;;5028288;28;20033;-63
2024/01/17 02:31:43;;;;;;;18.52;6.53;;;-4.10;99.90;;;;;;5028521;28;20033;-63
2024/01/17 02:34:10;;;;;;;19.35;7.45;;;-4.10;99.90;;;;;;5026481;28;20030;-63
2024/01/17 02:36:35;;;;;;;19.85;6.13;;;-4.10;99.90;;;;;;5028175;28;20091;-63
2024/01/17 02:39:01;;;;;;;18.80;6.60;;;-4.00;99.90;;;;;;5026068;28;20060;-63
2024/01/17 02:41:26;;;;;;;16.25;6.45;;;-4.10;99.90;;;;;;5031592;28;20388;-64
2024/01/17 02:43:52;;;;;;;18.25;6.25;;;-4.10;99.90;;;;;;5028764;28;20030;-63
2024/01/17 02:46:18;;;;;;;18.20;7.25;;;-4.10;99.90;;;;;;5031636;28;20132;-64
2024/01/17 02:48:43;;;;;;;12.90;5.45;;;-4.00;99.90;;;;;;5031096;28;20021;-63
2024/01/17 02:51:09;;;;;;;15.32;6.32;;;-4.00;99.90;;;;;;5032185;28;20033;-63
2024/01/17 02:53:35;;;;;;;17.20;6.88;;;-4.00;99.90;;;;;;5039544;28;20530;-63
2024/01/17 02:56:00;;;;;;;15.77;7.28;;;-3.30;99.90;;;;;;5030799;28;20032;-63
2024/01/17 02:58:26;;;;;;;20.90;8.93;;;-4.10;99.90;;;;;;5031521;28;20021;-63
2024/01/17 03:00:51;;;;;;;15.93;6.20;;;-4.10;99.90;;;;;;5029324;28;20392;-64
2024/01/17 03:03:17;;;;;;;19.17;7.05;;;-4.00;99.90;;;;;;5029780;28;20034;-63
2024/01/17 03:05:43;;;;;;;20.17;7.60;;;-4.00;99.90;;;;;;5031088;28;20026;-64
2024/01/17 03:08:08;;;;;;;19.75;7.82;;;-4.00;99.90;;;;;;5029706;28;20033;-63
2024/01/17 03:10:35;;;;;;;14.38;6.45;;;-4.00;99.90;;;;;;5030948;28;20060;-63
2024/01/17 03:13:01;;;;;;;17.23;5.18;;;-4.00;99.90;;;;;;5030471;28;20381;-63
2024/01/17 03:15:26;;;;;;;15.38;5.40;;;-4.00;99.90;;;;;;5027276;28;20040;-62
2024/01/17 03:17:52;;;;;;;17.67;6.70;;;-4.00;99.90;;;;;;5030057;28;20042;-63
2024/01/17 03:20:18;;;;;;;21.33;8.27;;;-4.00;99.90;;;;;;5029552;28;20026;-63
2024/01/17 03:22:44;;;;;;;22.75;7.60;;;-4.10;99.90;;;;;;5030047;28;20057;-63
2024/01/17 03:25:10;;;;;;;21.30;7.60;;;-4.10;99.90;;;;;;5031095;28;20444;-63
2024/01/17 03:27:36;;;;;;;15.82;6.65;;;-4.10;99.90;;;;;;5030718;28;20089;-63
2024/01/17 03:30:04;;;;;;;20.27;7.30;;;-4.10;99.90;;;;;;5028866;28;20033;-63
2024/01/17 03:32:30;;;;;;;19.10;7.65;;;-4.20;99.90;;;;;;5028958;28;20526;-63
2024/01/17 03:34:57;;;;;;;21.92;7.30;;;-4.20;99.90;;;;;;5028673;28;20033;-63
2024/01/17 03:37:23;;;;;;;18.85;8.00;;;-4.30;99.90;;;;;;5030361;28;20026;-63
2024/01/17 03:39:49;;;;;;;21.75;7.72;;;-4.30;99.90;;;;;;5030359;28;20025;-63
2024/01/17 03:42:16;;;;;;;18.45;7.63;;;-4.50;99.90;;;;;;5030657;28;20508;-63
2024/01/17 03:44:43;;;;;;;21.83;8.43;;;-4.60;99.90;;;;;;5024338;28;20033;-63
2024/01/17 03:47:09;;;;;;;20.88;7.82;;;-4.70;99.90;;;;;;5030220;28;20064;-62
2024/01/17 03:49:35;;;;;;;21.35;7.85;;;-4.80;99.90;;;;;;5029330;28;20137;-62
2024/01/17 03:52:00;;;;;;;21.02;7.30;;;-5.00;99.90;;;;;;5030260;28;20025;-63
2024/01/17 03:54:26;;;;;;;20.13;7.90;;;-5.10;99.90;;;;;;5030700;28;20033;-62
2024/01/17 03:56:52;;;;;;;20.52;7.53;;;-5.10;99.90;;;;;;5033474;28;20032;-63
2024/01/17 03:59:17;;;;;;;22.33;7.85;;;-5.10;99.90;;;;;;5030292;28;20100;-62
2024/01/17 04:01:44;;;;;;;18.70;7.75;;;-5.10;99.90;;;;;;5030975;28;20083;-63
2024/01/17 04:04:11;;;;;;;16.45;7.57;;;-5.10;99.90;;;;;;5027928;28;20025;-62
2024/01/17 04:06:36;;;;;;;20.38;8.27;;;-5.10;99.90;;;;;;5029975;28;20025;-62
2024/01/17 04:09:02;;;;;;;19.00;7.95;;;-5.00;99.90;;;;;;5029722;28;20052;-63
2024/01/17 04:11:28;;;;;;;22.90;8.40;;;-4.90;99.90;;;;;;5030329;28;20034;-63
2024/01/17 04:13:54;;;;;;;17.33;7.53;;;-4.80;99.90;;;;;;5028007;28;20076;-63
2024/01/17 04:16:20;;;;;;;24.45;7.88;;;-4.70;99.90;;;;;;5030122;28;20056;-63
2024/01/17 04:18:46;;;;;;;20.90;8.32;;;-4.70;99.90;;;;;;5030088;28;20480;-63
2024/01/17 04:21:21;;;;;;;22.20;7.82;;;-4.70;99.90;;;;;;5029295;28;20109;-63
2024/01/17 04:23:49;;;;;;;21.02;8.27;;;-4.80;99.90;;;;;;5026774;28;20021;-63
2024/01/17 04:26:23;;;;;;;21.75;7.18;;;-4.80;99.90;;;;;;5029685;28;20021;-63
2024/01/17 04:28:52;;;;;;;20.65;7.43;;;-5.10;99.90;;;;;;5029080;28;20021;-64
2024/01/17 04:31:24;;;;;;;20.83;8.52;;;-5.10;99.90;;;;;;5029704;28;20104;-63
2024/01/17 04:33:50;;;;;;;23.77;9.00;;;-5.20;99.90;;;;;;5027457;28;20431;-63
2024/01/17 04:36:16;;;;;;;19.92;8.88;;;-5.30;99.90;;;;;;5028088;28;20029;-63
2024/01/17 04:38:42;;;;;;;18.00;7.95;;;-5.40;99.90;;;;;;5029716;28;20037;-63
2024/01/17 04:41:10;;;;;;;21.50;7.70;;;-5.50;99.90;;;;;;5025163;28;20609;-63
2024/01/17 04:43:36;;;;;;;19.73;8.10;;;-5.50;99.90;;;;;;5029428;28;20010;-63
2024/01/17 04:46:02;;;;;;;28.20;8.18;;;-5.60;99.90;;;;;;5023064;28;20044;-63
2024/01/17 04:48:27;;;;;;;25.08;8.65;;;-5.50;99.90;;;;;;5029753;28;20087;-63
2024/01/17 04:50:58;;;;;;;24.73;8.65;;;-5.20;99.90;;;;;;5029173;28;20133;-63
2024/01/17 04:53:24;;;;;;;17.38;6.78;;;-4.90;99.90;;;;;;5028135;28;20034;-63
2024/01/17 04:55:50;;;;;;;25.17;8.13;;;-4.70;99.90;;;;;;5028740;28;20048;-63
2024/01/17 04:58:17;;;;;;;22.55;8.52;;;-4.70;99.90;;;;;;5032047;28;20451;-63
2024/01/17 05:00:46;;;;;;;23.45;7.65;;;-4.70;99.90;;;;;;5029018;28;20026;-63
2024/01/17 05:03:12;;;;;;;22.20;8.45;;;-4.80;99.90;;;;;;5026432;28;20021;-62
2024/01/17 05:05:37;;;;;;;19.80;8.50;;;-4.70;99.90;;;;;;5028759;28;20543;-63
2024/01/17 05:08:03;;;;;;;24.45;7.82;;;-4.60;99.90;;;;;;5028242;28;20082;-62
2024/01/17 05:10:29;;;;;;;19.27;7.50;;;-4.60;99.90;;;;;;5027557;28;20035;-63
2024/01/17 05:12:55;;;;;;;24.35;8.25;;;-4.70;99.90;;;;;;5026580;28;20021;-62
2024/01/17 05:15:20;;;;;;;19.17;8.00;;;-4.80;99.90;;;;;;5027773;28;20044;-62
2024/01/17 05:17:46;;;;;;;19.33;6.47;;;-4.70;99.90;;;;;;5028561;28;20500;-62
2024/01/17 05:20:13;;;;;;;19.15;6.82;;;-4.60;99.90;;;;;;5028452;28;20038;-61
2024/01/17 05:22:39;;;;;;;20.15;8.18;;;-4.50;99.90;;;;;;5028520;28;20021;-62
2024/01/17 05:25:08;;;;;;;20.13;7.35;;;-4.40;99.90;;;;;;5026975;28;20076;-63
2024/01/17 05:27:33;;;;;;;24.38;8.25;;;-4.30;99.90;;;;;;5024773;28;20025;-62
2024/01/17 05:29:59;;;;;;;20.38;7.97;;;-4.30;99.90;;;;;;5027988;28;20086;-62
2024/01/17 05:32:25;;;;;;;20.25;7.88;;;-4.30;99.90;;;;;;5013913;28;20393;-62
2024/01/17 05:34:53;;;;;;;19.17;6.82;;;-4.20;99.90;;;;;;5014881;28;20018;-62
2024/01/17 05:37:21;;;;;;;17.77;7.72;;;-4.30;99.90;;;;;;5016985;28;20025;-63
2024/01/17 05:39:47;;;;;;;22.83;7.88;;;-4.20;99.90;;;;;;5015750;28;20018;-62
2024/01/17 05:42:13;;;;;;;20.92;7.63;;;-4.20;99.90;;;;;;5015196;28;20033;-62
2024/01/17 05:44:39;;;;;;;31.08;8.50;;;-4.20;99.90;;;;;;5020620;28;20420;-63
2024/01/17 05:47:04;;;;;;;21.08;7.70;;;-4.30;99.90;;;;;;5018450;28;20033;-63
2024/01/17 05:49:30;;;;;;;21.42;7.45;;;-4.40;99.90;;;;;;5018072;28;20478;-63
2024/01/17 05:51:56;;;;;;;18.75;7.50;;;-4.50;99.90;;;;;;5020519;28;20029;-63
2024/01/17 05:54:23;;;;;;;20.48;7.05;;;-4.40;99.90;;;;;;5025784;28;20044;-62
2024/01/17 05:56:48;;;;;;;19.52;7.03;;;-4.30;99.90;;;;;;5025516;28;20021;-63
2024/01/17 05:59:14;;;;;;;17.77;7.03;;;-4.20;99.90;;;;;;5024402;28;20474;-62
2024/01/17 06:01:40;;;;;;;20.42;6.53;;;-4.10;99.90;;;;;;5023963;28;20026;-63
2024/01/17 06:04:06;;;;;;;20.60;6.82;;;-4.00;99.90;;;;;;5023610;28;20457;-63
2024/01/17 06:06:32;;;;;;;21.48;7.13;;;-4.00;99.90;;;;;;5022895;28;20018;-63
2024/01/17 06:08:58;;;;;;;16.90;6.35;;;-4.00;99.90;;;;;;5018838;28;20076;-63
2024/01/17 06:11:23;;;;;;;17.42;7.38;;;-4.00;99.90;;;;;;5022848;28;20103;-63
2024/01/17 06:13:49;;;;;;;16.90;6.65;;;-3.90;99.90;;;;;;5022613;28;20552;-63
2024/01/17 06:16:15;;;;;;;16.90;6.53;;;-3.90;99.90;;;;;;5019596;28;20033;-63
2024/01/17 06:18:40;;;;;;;24.48;7.43;;;-3.90;99.90;;;;;;5025523;28;20061;-63
2024/01/17 06:21:06;;;;;;;16.10;5.35;;;-3.80;99.90;;;;;;5028812;28;20044;-63
2024/01/17 06:23:31;;;;;;;17.10;6.30;;;-3.80;99.90;;;;;;5023117;28;21438;-64
2024/01/17 06:25:57;;;;;;;18.33;6.38;;;-3.80;99.90;;;;;;5029048;28;20039;-64
2024/01/17 06:28:23;;;;;;;18.80;5.72;;;-3.80;99.90;;;;;;5024004;28;20029;-63
2024/01/17 06:30:49;;;;;;;18.73;5.95;;;-3.70;99.90;;;;;;5030147;28;20026;-63
2024/01/17 06:33:14;;;;;;;18.60;6.20;;;-3.50;99.90;;;;;;5029713;28;20030;-63
2024/01/17 06:35:40;;;;;;;12.48;4.47;;;-3.40;99.90;;;;;;5026565;28;20114;-63
2024/01/17 06:38:05;;;;;;;17.08;5.40;;;-3.20;99.90;;;;;;5026805;28;20710;-63
2024/01/17 06:40:32;;;;;;;16.52;5.53;;;-3.10;99.90;;;;;;5029124;28;20033;-63
2024/01/17 06:42:57;;;;;;;14.27;4.82;;;-3.00;99.90;;;;;;5020774;28;20075;-63
2024/01/17 06:45:25;;;;;;;13.13;4.65;;;-3.00;99.90;;;;;;5022792;28;20485;-63
2024/01/17 06:47:50;;;;;;;13.93;4.78;;;-3.00;99.90;;;;;;5023960;28;20104;-64
2024/01/17 06:50:18;;;;;;;16.77;5.82;;;-3.00;99.90;;;;;;5021755;28;20073;-63
2024/01/17 06:52:44;;;;;;;15.38;5.78;;;-0.40;99.90;;;;;;5025574;28;20026;-63
2024/01/17 06:55:10;;;;;;;14.63;5.70;;;-3.00;99.90;;;;;;5031688;28;20664;-63
2024/01/17 06:57:35;;;;;;;16.35;6.10;;;-3.00;99.90;;;;;;5034682;28;20029;-64
2024/01/17 07:00:02;;;;;;;14.15;6.00;;;-3.00;99.90;;;;;;5030421;28;20540;-63
2024/01/17 07:02:28;;;;;;;9.45;3.05;;;-3.10;99.90;;;;;;5032052;28;20396;-63
2024/01/17 07:04:54;;;;;;;12.80;5.03;;;-3.10;99.90;;;;;;5022122;28;20025;-63
2024/01/17 07:07:19;;;;;;;19.95;5.40;;;-3.00;99.90;;;;;;5012492;28;20389;-63
2024/01/17 07:09:45;;;;;;;14.15;4.93;;;-2.90;99.90;;;;;;5026809;28;20033;-63
2024/01/17 07:12:11;;;;;;;11.98;4.20;;;-2.80;99.90;;;;;;5023890;28;20117;-63
2024/01/17 07:14:36;;;;;;;13.68;4.95;;;-2.70;99.90;;;;;;5025362;28;20448;-63
2024/01/17 07:17:02;;;;;;;13.57;4.15;;;-2.70;99.90;;;;;;5025045;28;20058;-63
2024/01/17 07:19:27;;;;;;;11.77;4.80;;;-2.60;99.90;;;;;;5025356;28;20053;-63
2024/01/17 07:21:53;;;;;;;12.32;5.25;;;-2.50;99.90;;;;;;5030155;28;20021;-63
2024/01/17 07:24:19;;;;;;;15.02;4.93;;;-2.50;99.90;;;;;;5023312;28;20036;-63
2024/01/17 07:26:44;;;;;;;15.43;5.03;;;-2.50;99.90;;;;;;5029596;28;20469;-63
2024/01/17 07:29:10;;;;;;;13.75;5.00;;;-2.50;99.90;;;;;;5027265;28;20069;-63
2024/01/17 07:31:35;;;;;;;10.48;4.00;;;-2.50;99.90;;;;;;5024990;28;20057;-63
2024/01/17 07:34:02;;;;;;;11.45;4.78;;;-2.60;99.90;;;;;;5021879;28;20021;-63
2024/01/17 07:36:27;;;;;;;18.00;5.63;;;-2.60;99.90;;;;;;5022054;28;20030;-63
2024/01/17 07:38:53;;;;;;;17.27;5.90;;;-2.60;99.90;;;;;;5026543;28;20030;-63
2024/01/17 07:41:19;;;;;;;14.43;5.65;;;-2.60;99.90;;;;;;5022573;28;20029;-63
2024/01/17 07:43:44;;;;;;;14.07;5.05;;;-2.60;99.90;;;;;;5024249;28;20033;-65
2024/01/17 07:46:12;;;;;;;16.67;5.07;;;-2.60;99.90;;;;;;5028086;28;20037;-63
2024/01/17 07:48:38;;;;;;;21.83;5.57;;;-2.60;99.90;;;;;;5030583;28;20469;-63
2024/01/17 07:51:05;;;;;;;20.48;6.03;;;-2.50;99.90;;;;;;5029892;28;20078;-63
2024/01/17 07:53:31;;;;;;;15.80;6.20;;;-2.50;99.90;;;;;;5028680;28;20026;-63
2024/01/17 07:55:58;;;;;;;15.90;5.82;;;-2.50;99.90;;;;;;5031603;28;20032;-63
2024/01/17 07:58:24;;;;;;;16.58;6.80;;;-2.60;99.90;;;;;;5031950;28;20023;-63
2024/01/17 08:00:49;;;;;;;16.08;6.95;;;-2.60;99.90;;;;;;5031102;28;20030;-64
2024/01/17 08:03:15;;;;;;;18.98;7.80;;;-2.70;99.90;;;;;;5029681;28;20041;-64
2024/01/17 08:05:41;;;;;;;19.92;8.23;;;-2.80;99.90;;;;;;5030902;28;20056;-63
2024/01/17 08:08:07;;;;;;;19.98;7.28;;;-2.80;99.90;;;;;;5030528;28;20100;-63
2024/01/17 08:10:33;;;;;;;31.30;8.55;;;-2.90;99.90;;;;;;5029850;28;20564;-63
2024/01/17 08:12:58;;;;;;;21.80;8.13;;;-3.00;99.90;;;;;;5030459;28;20087;-62
2024/01/17 08:15:24;;;;;;;22.30;8.60;;;-3.00;99.90;;;;;;5026487;28;20037;-62
2024/01/17 08:17:50;;;;;;;21.23;7.90;;;-3.00;99.90;;;;;;5023846;28;20516;-63
2024/01/17 08:20:19;;;;;;;22.33;8.15;;;-2.90;99.90;;;;;;5025867;28;20079;-63
2024/01/17 08:22:44;;;;;;;20.48;8.00;;;-2.90;99.90;;;;;;5028435;28;20495;-62
2024/01/17 08:25:10;;;;;;;17.80;7.63;;;-2.80;99.90;;;;;;5024027;28;20026;-62
2024/01/17 08:27:36;;;;;;;21.40;8.18;;;-2.80;99.90;;;;;;5027093;28;20538;-63
2024/01/17 08:30:09;;;;;;;20.58;7.50;;;-2.80;99.90;;;;;;5029202;28;20104;-62
2024/01/17 08:32:35;;;;;;;19.80;8.40;;;-2.80;99.90;;;;;;5010965;28;20037;-62
2024/01/17 08:35:01;;;;;;;23.90;8.32;;;-2.80;99.90;;;;;;5022597;28;20037;-62
2024/01/17 08:37:26;;;;;;;19.17;7.40;;;-2.70;99.90;;;;;;5018208;28;20029;-62
2024/01/17 08:39:52;;;;;;;20.50;7.68;;;-2.70;99.90;;;;;;5012417;28;20125;-62
2024/01/17 08:42:18;;;;;;;20.17;7.63;;;-2.70;99.90;;;;;;5021098;28;20481;-62
2024/01/17 08:44:43;;;;;;;16.15;7.18;;;-2.60;99.90;;;;;;5021169;28;20097;-63
2024/01/17 08:47:09;;;;;;;17.83;6.85;;;-2.50;99.90;;;;;;5019881;28;20030;-62
2024/01/17 08:49:39;;;;;;;19.30;7.38;;;-2.50;99.90;;;;;;5025323;28;20024;-62
2024/01/17 08:52:05;;;;;;;19.08;7.57;;;-2.40;99.90;;;;;;5023568;28;20026;-62
2024/01/17 08:54:31;;;;;;;20.05;7.25;;;-2.30;99.90;;;;;;5026935;28;20584;-62
2024/01/17 08:56:57;;;;;;;18.38;7.32;;;-2.30;99.90;;;;;;5028915;28;20024;-62
2024/01/17 08:59:22;;;;;;;21.15;7.40;;;-2.20;99.90;;;;;;5022402;28;20440;-63
2024/01/17 09:01:48;;;;;;;16.83;6.85;;;-2.10;99.90;;;;;;5027975;28;20033;-62
2024/01/17 09:04:14;;;;;;;22.25;8.00;;;-2.00;99.90;;;;;;5022095;28;20058;-62
2024/01/17 09:06:39;;;;;;;15.48;5.97;;;-1.80;99.90;;;;;;5029104;28;20087;-62
2024/01/17 09:09:08;;;;;;;14.10;5.65;;;-1.80;99.90;;;;;;5029476;28;20067;-62
2024/01/17 09:11:34;;;;;;;14.18;4.57;;;-1.70;99.90;;;;;;5028188;28;20026;-63
2024/01/17 09:14:00;;;;;;;15.70;6.10;;;-1.50;99.90;;;;;;5027198;28;20094;-63
2024/01/17 09:16:25;;;;;;;15.00;5.37;;;0.20;99.90;;;;;;4990101;28;1124087;-63
2024/01/17 09:18:51;;;;;;;15.18;5.70;;;-1.30;99.90;;;;;;5030235;28;20057;-63
2024/01/17 09:21:17;;;;;;;15.95;5.90;;;-1.20;99.90;;;;;;5029673;28;20025;-63
2024/01/17 09:23:42;;;;;;;8.02;3.08;;;-1.10;99.90;;;;;;5030164;28;20029;-63
2024/01/17 09:26:08;;;;;;;12.48;5.45;;;-1.00;99.90;;;;;;5030104;28;20453;-62
2024/01/17 09:28:33;;;;;;;12.88;4.57;;;-0.90;99.90;;;;;;5030278;28;20036;-63
2024/01/17 09:30:59;;;;;;;13.65;5.75;;;-0.80;99.90;;;;;;5029819;28;20545;-63
2024/01/17 09:33:25;;;;;;;11.48;3.97;;;-0.70;99.90;;;;;;5027656;28;20026;-63
2024/01/17 09:35:50;;;;;;;11.13;4.50;;;-0.70;99.90;;;;;;5029645;28;20021;-63
2024/01/17 09:38:19;;;;;;;11.80;4.50;;;-0.70;99.90;;;;;;5029529;28;20061;-63
2024/01/17 09:40:49;;;;;;;16.10;5.22;;;-0.70;99.90;;;;;;5025656;28;20029;-62
2024/01/17 09:43:16;;;;;;;13.07;5.00;;;-0.60;99.90;;;;;;5025891;28;20575;-62
2024/01/17 09:45:42;;;;;;;18.17;5.55;;;-0.50;99.90;;;;;;5023472;28;20057;-62
2024/01/17 09:48:10;;;;;;;12.32;4.28;;;-0.30;99.90;;;;;;5025484;28;20440;-63
2024/01/17 09:50:35;;;;;;;12.52;5.30;;;-0.40;99.90;;;;;;5029893;28;20053;-63
2024/01/17 09:53:04;;;;;;;12.73;5.20;;;-0.30;99.90;;;;;;5029302;28;20489;-63
2024/01/17 09:55:31;;;;;;;13.40;5.15;;;-0.20;99.90;;;;;;5029207;28;20018;-63
2024/01/17 09:57:59;;;;;;;14.73;4.40;;;-0.10;99.90;;;;;;5032694;28;20032;-62
2024/01/17 10:00:26;;;;;;;9.63;3.85;;;-0.10;99.90;;;;;;5029391;28;20087;-63
2024/01/17 10:02:54;;;;;;;12.65;5.20;;;-0.10;99.90;;;;;;5025975;28;20022;-63
2024/01/17 10:05:21;;;;;;;18.33;5.35;;;0.00;99.90;;;;;;5029042;28;20026;-63
2024/01/17 10:07:47;;;;;;;12.63;4.50;;;0.00;99.90;;;;;;5027955;28;20032;-63
2024/01/17 10:10:13;;;;;;;14.55;5.18;;;0.00;99.90;;;;;;5028646;28;20497;-62
2024/01/17 10:12:41;;;;;;;13.63;4.45;;;0.00;99.90;;;;;;5028540;28;20106;-63
2024/01/17 10:15:12;;;;;;;9.48;4.03;;;0.00;99.90;;;;;;5025495;28;20129;-62
2024/01/17 10:17:37;;;;;;;;;;;0.10;99.90;;;;;;5028955;28;20114;-63
2024/01/17 10:20:04;;;;;;;11.18;4.70;;;0.10;99.90;;;;;;5027019;28;20011;-63
2024/01/17 10:22:31;;;;;;;10.82;3.58;;;0.20;99.90;;;;;;5027166;28;20083;-63
2024/01/17 10:24:59;;;;;;;12.32;5.18;;;0.20;99.90;;;;;;5028395;28;20109;-63
2024/01/17 10:27:26;;;;;;;17.13;5.50;;;0.20;99.90;;;;;;5028382;28;20025;-63
2024/01/17 10:29:52;;;;;;;14.75;4.88;;;0.30;99.90;;;;;;5028742;28;20034;-62
2024/01/17 10:32:18;;;;;;;13.70;5.30;;;0.30;99.90;;;;;;5026931;28;20423;-63
2024/01/17 10:34:44;;;;;;;11.88;4.97;;;0.40;99.90;;;;;;5026688;28;20033;-63
2024/01/17 10:37:11;;;;;;;14.63;5.13;;;0.50;99.90;;;;;;5028259;28;20484;-63
2024/01/17 10:39:37;;;;;;;11.18;5.43;;;0.50;99.90;;;;;;5023291;28;20037;-63
2024/01/17 10:42:05;;;;;;;14.18;5.60;;;0.60;99.90;;;;;;5023441;28;20025;-62
2024/01/17 10:44:31;;;;;;;12.73;5.50;;;0.70;99.90;;;;;;5019190;28;20572;-61
2024/01/17 10:46:57;;;;;;;13.70;5.07;;;0.70;99.90;;;;;;5014219;28;20076;-61
2024/01/17 10:49:23;;;;;;;12.68;5.20;;;0.70;99.90;;;;;;5016313;28;20043;-61
2024/01/17 10:51:52;;;;;;;13.32;5.32;;;0.70;99.90;;;;;;5014919;28;20029;-61
2024/01/17 10:54:23;;;;;;;14.07;5.45;;;0.70;99.90;;;;;;5015229;28;20620;-61
2024/01/17 10:56:54;;;;;;;12.38;5.07;;;0.80;99.90;;;;;;5017537;28;20473;-61
2024/01/17 10:59:21;;;;;;;10.93;5.38;;;0.80;99.90;;;;;;5016255;28;20100;-61
2024/01/17 11:01:52;;;;;;;14.15;5.38;;;0.80;99.90;;;;;;5017218;28;20034;-62
2024/01/17 11:04:34;;;;;;;14.65;5.47;;;0.80;99.90;;;;;;5022132;28;20080;-61
2024/01/17 11:07:00;;;;;;;12.90;5.60;;;0.90;99.90;;;;;;5018083;28;20381;-62
2024/01/17 11:09:27;;;;;;;12.27;4.93;;;1.00;99.90;;;;;;5015516;28;20032;-61
2024/01/17 11:11:54;;;;;;;16.77;5.90;;;1.10;99.90;;;;;;5019923;28;20330;-61
2024/01/17 11:14:21;;;;;;;16.92;5.35;;;1.20;99.90;;;;;;5020246;28;20477;-61
2024/01/17 11:16:52;;;;;;;12.05;5.35;;;1.10;99.90;;;;;;5016106;28;20048;-61
2024/01/17 11:19:19;;;;;;;15.68;5.90;;;1.10;99.90;;;;;;5017389;28;20396;-63
2024/01/17 11:21:45;;;;;;;13.60;5.63;;;1.20;99.90;;;;;;5015680;28;20033;-63
2024/01/17 11:24:24;;;;;;;14.20;5.70;;;1.10;99.90;;;;;;5021282;28;20339;-63
2024/01/17 11:26:49;;;;;;;16.83;5.93;;;1.10;99.90;;;;;;5016964;28;20025;-63
2024/01/17 11:29:18;;;;;;;14.20;5.53;;;1.00;99.90;;;;;;5018529;28;20036;-63
2024/01/17 11:31:59;;;;;;;12.52;5.30;;;1.00;99.90;;;;;;5019281;28;20022;-61
2024/01/17 11:34:25;;;;;;;13.57;5.03;;;1.10;99.90;;;;;;5016707;28;20389;-63
2024/01/17 11:36:52;;;;;;;13.98;5.75;;;1.10;99.90;;;;;;5021937;28;20033;-63
2024/01/17 11:39:19;;;;;;;12.77;5.28;;;1.20;99.90;;;;;;5027906;28;20049;-63
2024/01/17 11:41:46;;;;;;;15.05;6.15;;;1.30;99.90;;;;;;5025428;28;20183;-61
2024/01/17 11:44:13;;;;;;;14.30;5.80;;;1.30;99.90;;;;;;5029376;28;20492;-61
2024/01/17 11:46:39;;;;;;;13.65;5.25;;;1.30;99.90;;;;;;5028673;28;20049;-62
2024/01/17 11:49:05;;;;;;;14.40;5.28;;;1.30;99.90;;;;;;5029476;28;20099;-61
2024/01/17 11:51:33;;;;;;;14.82;5.75;;;1.30;99.90;;;;;;5029665;28;20437;-62
2024/01/17 11:54:02;;;;;;;17.17;6.97;;;1.30;99.90;;;;;;5026653;28;20298;-61
2024/01/17 11:56:28;;;;;;;15.80;6.65;;;1.30;99.90;;;;;;5031080;28;20033;-61
2024/01/17 11:59:03;;;;;;;16.10;6.80;;;1.20;99.90;;;;;;5029055;28;20088;-62
2024/01/17 12:01:31;;;;;;;15.77;6.53;;;1.30;99.90;;;;;;5029915;28;20065;-63
2024/01/17 12:03:57;;;;;;;15.98;6.50;;;1.20;99.90;;;;;;5022532;28;20040;-62
2024/01/17 12:06:23;;;;;;;13.88;6.30;;;1.30;99.90;;;;;;5027879;28;20107;-62
2024/01/17 12:08:52;;;;;;;19.40;6.15;;;1.30;99.90;;;;;;5019600;28;20025;-62
2024/01/17 12:11:18;;;;;;;17.55;6.80;;;1.30;99.90;;;;;;5015921;28;20029;-62
2024/01/17 12:13:44;;;;;;;18.38;7.88;;;1.30;99.90;;;;;;5014829;28;20045;-62
2024/01/17 12:16:11;;;;;;;15.38;6.30;;;1.30;99.90;;;;;;5012810;28;20410;-62
2024/01/17 12:18:37;;;;;;;23.00;7.60;;;1.20;99.90;;;;;;5016271;28;20509;-62
2024/01/17 12:21:03;;;;;;;17.75;7.28;;;1.20;99.90;;;;;;5028042;28;20172;-62
2024/01/17 12:23:33;;;;;;;18.77;7.20;;;1.10;99.90;;;;;;5018140;28;20048;-62
2024/01/17 12:25:59;;;;;;;19.42;8.13;;;1.00;99.90;;;;;;5021862;28;20033;-62
2024/01/17 12:28:29;;;;;;;20.15;7.70;;;0.90;99.90;;;;;;5023488;28;20396;-62
2024/01/17 12:30:58;;;;;;;17.58;7.82;;;0.80;99.90;;;;;;5020765;28;20061;-62
2024/01/17 12:33:26;;;;;;;25.98;7.82;;;0.80;99.90;;;;;;5012805;28;20335;-62